Time;durP1;ratioP1;P1;durP2;ratioP2;P2;SDS_P1;SDS_P2;PMS_P1;PMS_P2;Temp;Humidity;BMP_temperature;BMP_pressure;BME280_temperature;BME280_humidity;BME280_pressure;Samples;Min_cycle;Max_cycle;Signal;HPM_P1;HPM_P2
2024/04/16 00:01:37;;;;;;;4.95;0.60;;;;;;;;;;5505893;25;19997;-65
2024/04/16 00:04:04;;;;;;;4.75;1.95;;;;;;;;;;5509124;25;20493;-65
2024/04/16 00:06:31;;;;;;;6.10;0.82;;;;;;;;;;5506615;25;20017;-65
2024/04/16 00:08:57;;;;;;;1.02;0.40;;;;;;;;;;5508142;25;20116;-65
2024/04/16 00:11:23;;;;;;;1.55;0.40;;;;;;;;;;5468957;25;20016;-66
2024/04/16 00:13:51;;;;;;;5.32;0.70;;;;;;;;;;5502959;25;20010;-65
2024/04/16 00:16:17;;;;;;;2.97;0.90;;;;;;;;;;5511157;25;20002;-66
2024/04/16 00:18:44;;;;;;;4.18;0.50;;;;;;;;;;5510267;25;20331;-66
2024/04/16 00:21:11;;;;;;;7.05;0.73;;;;;;;;;;5505649;25;20002;-66
2024/04/16 00:23:37;;;;;;;4.85;0.70;;;;;;;;;;5514738;25;20101;-65
2024/04/16 00:26:04;;;;;;;4.55;0.57;;;;;;;;;;5510102;25;22373;-66
2024/04/16 00:28:30;;;;;;;7.13;1.38;;;;;;;;;;5505347;25;20386;-65
2024/04/16 00:30:57;;;;;;;4.55;0.70;;;;;;;;;;5503188;25;20419;-65
2024/04/16 00:33:23;;;;;;;5.15;1.25;;;;;;;;;;5504084;25;20013;-66
2024/04/16 00:35:49;;;;;;;4.28;0.63;;;;;;;;;;5503904;25;20025;-65
2024/04/16 00:38:15;;;;;;;5.05;0.90;;;;;;;;;;5496300;25;20634;-66
2024/04/16 00:40:42;;;;;;;6.57;0.75;;;;;;;;;;5503344;25;19995;-66
2024/04/16 00:43:19;;;;;;;6.50;0.80;;;;;;;;;;5505972;25;19998;-65
2024/04/16 00:45:53;;;;;;;6.95;0.65;;;;;;;;;;5506276;25;20362;-65
2024/04/16 00:48:21;;;;;;;3.95;0.65;;;;;;;;;;5497608;25;20005;-66
2024/04/16 00:50:48;;;;;;;7.65;0.88;;;;;;;;;;5504935;25;20004;-65
2024/04/16 00:53:15;;;;;;;4.85;0.75;;;;;;;;;;5503933;25;20450;-66
2024/04/16 00:55:41;;;;;;;5.75;0.95;;;;;;;;;;5499443;25;20002;-65
2024/04/16 00:58:09;;;;;;;6.68;1.02;;;;;;;;;;5502236;25;20112;-65
2024/04/16 01:00:35;;;;;;;4.63;0.70;;;;;;;;;;5502414;25;20086;-65
2024/04/16 01:03:01;;;;;;;2.50;0.82;;;;;;;;;;5506433;25;19994;-65
2024/04/16 01:05:28;;;;;;;8.02;1.00;;;;;;;;;;5508869;25;20095;-66
2024/04/16 01:07:54;;;;;;;8.80;1.00;;;;;;;;;;5506393;25;19993;-65
2024/04/16 01:10:20;;;;;;;7.50;0.80;;;;;;;;;;5476959;25;20013;-65
2024/04/16 01:12:47;;;;;;;8.32;1.27;;;;;;;;;;5470709;25;19997;-65
2024/04/16 01:15:14;;;;;;;9.02;1.15;;;;;;;;;;5495545;25;19999;-66
2024/04/16 01:17:46;;;;;;;9.48;1.00;;;;;;;;;;5508067;25;20329;-66
2024/04/16 01:20:12;;;;;;;8.63;1.02;;;;;;;;;;5512771;25;20037;-65
2024/04/16 01:22:38;;;;;;;11.93;2.03;;;;;;;;;;5509153;25;20038;-65
2024/04/16 01:25:05;;;;;;;9.25;0.80;;;;;;;;;;5507259;25;20009;-65
2024/04/16 01:27:31;;;;;;;3.70;0.95;;;;;;;;;;5506409;25;20008;-65
2024/04/16 01:29:58;;;;;;;9.18;1.00;;;;;;;;;;5505717;25;20015;-65
2024/04/16 01:32:24;;;;;;;10.35;1.20;;;;;;;;;;5506913;25;20034;-65
2024/04/16 01:34:50;;;;;;;8.02;1.42;;;;;;;;;;5501323;25;20085;-65
2024/04/16 01:37:17;;;;;;;8.38;1.45;;;;;;;;;;5473386;25;19998;-65
2024/04/16 01:39:43;;;;;;;6.18;1.50;;;;;;;;;;5498105;25;20001;-65
2024/04/16 01:42:10;;;;;;;15.90;1.55;;;;;;;;;;5493160;25;19998;-65
2024/04/16 01:44:36;;;;;;;10.52;1.20;;;;;;;;;;5501631;25;19994;-65
2024/04/16 01:47:02;;;;;;;10.15;1.30;;;;;;;;;;5511169;25;20406;-65
2024/04/16 01:49:28;;;;;;;6.90;0.98;;;;;;;;;;5504567;25;20002;-66
2024/04/16 01:51:55;;;;;;;8.48;1.25;;;;;;;;;;5504941;25;20101;-65
2024/04/16 01:54:21;;;;;;;9.60;1.20;;;;;;;;;;5498153;25;20305;-65
2024/04/16 01:56:50;;;;;;;7.88;2.22;;;;;;;;;;5500210;25;20820;-65
2024/04/16 01:59:17;;;;;;;15.15;3.30;;;;;;;;;;5500525;25;19993;-65
2024/04/16 02:01:44;;;;;;;10.18;1.63;;;;;;;;;;5502099;25;20073;-65
2024/04/16 02:04:10;;;;;;;9.68;1.45;;;;;;;;;;5502894;25;20009;-65
2024/04/16 02:06:38;;;;;;;8.32;1.88;;;;;;;;;;5501272;25;20064;-65
2024/04/16 02:09:04;;;;;;;9.50;1.10;;;;;;;;;;5449964;25;20121;-67
2024/04/16 02:11:30;;;;;;;8.65;1.50;;;;;;;;;;5503644;25;20045;-65
2024/04/16 02:13:57;;;;;;;12.18;2.60;;;;;;;;;;5505014;25;20010;-65
2024/04/16 02:16:24;;;;;;;10.00;1.42;;;;;;;;;;5507093;25;20457;-65
2024/04/16 02:18:51;;;;;;;7.75;1.33;;;;;;;;;;5500376;25;20021;-65
2024/04/16 02:21:17;;;;;;;7.20;1.80;;;;;;;;;;5509519;25;20015;-65
2024/04/16 02:23:46;;;;;;;9.50;1.42;;;;;;;;;;5508629;25;19994;-65
2024/04/16 02:26:12;;;;;;;8.35;1.17;;;;;;;;;;5511238;25;19998;-65
2024/04/16 02:28:39;;;;;;;10.05;1.30;;;;;;;;;;5509089;25;21792;-65
2024/04/16 02:31:05;;;;;;;11.43;1.15;;;;;;;;;;5475021;25;20025;-65
2024/04/16 02:33:32;;;;;;;11.40;1.30;;;;;;;;;;5512960;25;19998;-65
2024/04/16 02:36:00;;;;;;;17.48;3.15;;;;;;;;;;5501528;25;20432;-65
2024/04/16 02:38:26;;;;;;;9.57;1.42;;;;;;;;;;5483536;25;20008;-65
2024/04/16 02:40:53;;;;;;;5.68;0.75;;;;;;;;;;5507339;25;20023;-65
2024/04/16 02:43:19;;;;;;;6.43;0.77;;;;;;;;;;5510328;25;20298;-65
2024/04/16 02:45:53;;;;;;;8.18;0.77;;;;;;;;;;5484523;25;20069;-65
2024/04/16 02:48:19;;;;;;;5.65;1.00;;;;;;;;;;5509304;25;20013;-65
2024/04/16 02:50:47;;;;;;;10.35;0.98;;;;;;;;;;5510175;25;20005;-65
2024/04/16 02:53:13;;;;;;;8.93;1.10;;;;;;;;;;5505719;25;19994;-65
2024/04/16 02:55:40;;;;;;;7.07;0.80;;;;;;;;;;5500970;25;20009;-65
2024/04/16 02:58:06;;;;;;;7.05;1.02;;;;;;;;;;5510062;25;19994;-65
2024/04/16 03:00:33;;;;;;;8.18;0.77;;;;;;;;;;5510527;25;19994;-65
2024/04/16 03:02:59;;;;;;;8.88;0.75;;;;;;;;;;5509848;25;19994;-65
2024/04/16 03:05:25;;;;;;;4.72;0.95;;;;;;;;;;5539415;25;20341;-65
2024/04/16 03:07:52;;;;;;;6.53;1.35;;;;;;;;;;5507284;25;20297;-65
2024/04/16 03:10:18;;;;;;;8.77;1.00;;;;;;;;;;5511117;25;20029;-65
2024/04/16 03:12:45;;;;;;;8.13;1.13;;;;;;;;;;5508399;25;20005;-65
2024/04/16 03:15:12;;;;;;;5.50;0.88;;;;;;;;;;5505746;25;20005;-65
2024/04/16 03:17:39;;;;;;;10.65;1.10;;;;;;;;;;5507824;25;19997;-66
2024/04/16 03:20:06;;;;;;;8.15;1.08;;;;;;;;;;5509946;25;20073;-65
2024/04/16 03:22:33;;;;;;;11.65;1.00;;;;;;;;;;5510997;25;20024;-65
2024/04/16 03:24:59;;;;;;;6.90;1.50;;;;;;;;;;5508382;25;19994;-65
2024/04/16 03:27:25;;;;;;;11.07;1.20;;;;;;;;;;5506136;25;20001;-65
2024/04/16 03:30:12;;;;;;;6.20;1.10;;;;;;;;;;5488100;25;20001;-65
2024/04/16 03:32:38;;;;;;;10.20;1.98;;;;;;;;;;5503738;25;20939;-65
2024/04/16 03:35:25;;;;;;;14.10;1.63;;;;;;;;;;5498219;25;20046;-65
2024/04/16 03:37:51;;;;;;;9.70;2.08;;;;;;;;;;5515038;25;20065;-65
2024/04/16 03:40:18;;;;;;;14.25;1.33;;;;;;;;;;5508136;25;20004;-65
2024/04/16 03:42:44;;;;;;;13.02;1.60;;;;;;;;;;5505126;25;20073;-65
2024/04/16 03:45:10;;;;;;;10.50;1.23;;;;;;;;;;5510882;25;20001;-65
2024/04/16 03:47:36;;;;;;;13.88;2.55;;;;;;;;;;5507689;25;20004;-65
2024/04/16 03:50:03;;;;;;;11.77;1.50;;;;;;;;;;5505970;25;20088;-65
2024/04/16 03:52:30;;;;;;;7.35;1.15;;;;;;;;;;5510809;25;19993;-65
2024/04/16 03:54:57;;;;;;;14.77;1.83;;;;;;;;;;5513032;25;20016;-65
2024/04/16 03:57:24;;;;;;;15.90;2.05;;;;;;;;;;5506483;25;20004;-65
2024/04/16 04:02:35;;;;;;;19.48;1.98;;;;;;;;;;5508395;25;20398;-65
2024/04/16 04:05:01;;;;;;;14.70;3.13;;;;;;;;;;5511320;25;20005;-65
2024/04/16 04:07:38;;;;;;;19.77;2.15;;;;;;;;;;5510158;25;20037;-65
2024/04/16 04:10:04;;;;;;;11.68;1.58;;;;;;;;;;5508930;25;20433;-65
2024/04/16 04:12:31;;;;;;;13.90;1.48;;;;;;;;;;5512318;25;19994;-65
2024/04/16 04:14:57;;;;;;;11.57;1.48;;;;;;;;;;5507772;25;20005;-65
2024/04/16 04:17:23;;;;;;;15.20;1.60;;;;;;;;;;5506658;25;20453;-65
2024/04/16 04:19:50;;;;;;;9.07;1.05;;;;;;;;;;5500170;25;20002;-65
2024/04/16 04:22:17;;;;;;;20.65;1.70;;;;;;;;;;5503693;25;20024;-65
2024/04/16 04:24:43;;;;;;;12.75;1.60;;;;;;;;;;5496927;25;19993;-65
2024/04/16 04:27:09;;;;;;;10.23;1.15;;;;;;;;;;5504954;25;20094;-65
2024/04/16 04:29:36;;;;;;;9.95;1.17;;;;;;;;;;5504967;25;20002;-65
2024/04/16 04:32:02;;;;;;;10.27;0.93;;;;;;;;;;5506234;25;20378;-65
2024/04/16 04:34:29;;;;;;;12.40;1.42;;;;;;;;;;5511880;25;20077;-65
2024/04/16 04:36:55;;;;;;;9.05;1.05;;;;;;;;;;5504000;25;20001;-65
2024/04/16 04:39:21;;;;;;;7.93;0.88;;;;;;;;;;5504103;25;19993;-65
2024/04/16 04:41:48;;;;;;;5.18;0.50;;;;;;;;;;5505173;25;20104;-64
2024/04/16 04:44:14;;;;;;;5.50;0.73;;;;;;;;;;5506096;25;20650;-65
2024/04/16 04:46:40;;;;;;;5.32;0.47;;;;;;;;;;5506348;25;20016;-64
2024/04/16 04:49:07;;;;;;;4.70;0.60;;;;;;;;;;5472959;25;20594;-65
2024/04/16 04:51:33;;;;;;;4.85;0.70;;;;;;;;;;5506066;25;19993;-65
2024/04/16 04:53:59;;;;;;;8.45;1.00;;;;;;;;;;5510334;25;19993;-65
2024/04/16 04:56:27;;;;;;;5.55;0.77;;;;;;;;;;5511032;25;20136;-65
2024/04/16 04:58:54;;;;;;;7.55;0.82;;;;;;;;;;5508075;25;20009;-64
2024/04/16 05:01:20;;;;;;;8.38;0.80;;;;;;;;;;5508182;25;20005;-64
2024/04/16 05:03:46;;;;;;;4.63;0.75;;;;;;;;;;5475628;25;20009;-65
2024/04/16 05:06:13;;;;;;;3.83;0.63;;;;;;;;;;5508011;25;20465;-65
2024/04/16 05:08:40;;;;;;;6.22;1.00;;;;;;;;;;5507847;25;20113;-65
2024/04/16 05:11:06;;;;;;;7.22;0.65;;;;;;;;;;5508471;25;19998;-65
2024/04/16 05:13:32;;;;;;;4.40;1.00;;;;;;;;;;5510693;25;20021;-65
2024/04/16 05:16:01;;;;;;;3.45;0.50;;;;;;;;;;5507381;25;20002;-65
2024/04/16 05:18:27;;;;;;;10.35;1.00;;;;;;;;;;5507660;25;19994;-65
2024/04/16 05:20:56;;;;;;;8.45;1.08;;;;;;;;;;5505476;25;20437;-65
2024/04/16 05:23:22;;;;;;;4.53;0.90;;;;;;;;;;5506723;25;20269;-65
2024/04/16 05:25:53;;;;;;;4.50;0.90;;;;;;;;;;5505831;25;20824;-65
2024/04/16 05:28:19;;;;;;;8.23;0.95;;;;;;;;;;5507367;25;20038;-65
2024/04/16 05:30:45;;;;;;;7.82;0.90;;;;;;;;;;5507499;25;20043;-65
2024/04/16 05:33:12;;;;;;;6.57;1.15;;;;;;;;;;5508481;25;20030;-65
2024/04/16 05:35:38;;;;;;;7.47;0.80;;;;;;;;;;5510442;25;20026;-65
2024/04/16 05:38:05;;;;;;;8.27;0.90;;;;;;;;;;5483224;25;20004;-65
2024/04/16 05:40:32;;;;;;;6.72;1.05;;;;;;;;;;5509710;25;20012;-65
2024/04/16 05:42:58;;;;;;;8.57;1.23;;;;;;;;;;5499640;25;20357;-66
2024/04/16 05:45:25;;;;;;;4.68;0.60;;;;;;;;;;5498975;25;20005;-65
2024/04/16 05:47:51;;;;;;;6.22;1.27;;;;;;;;;;5506540;25;20122;-65
2024/04/16 05:50:17;;;;;;;7.95;1.08;;;;;;;;;;5472430;25;20005;-65
2024/04/16 05:52:44;;;;;;;13.50;1.40;;;;;;;;;;5511233;25;19993;-65
2024/04/16 05:55:10;;;;;;;5.00;1.17;;;;;;;;;;5499356;25;20005;-66
2024/04/16 05:57:36;;;;;;;7.95;1.25;;;;;;;;;;5502562;25;20002;-66
2024/04/16 06:00:04;;;;;;;11.13;1.58;;;;;;;;;;5503486;25;20012;-66
2024/04/16 06:02:31;;;;;;;5.63;1.15;;;;;;;;;;5468581;25;20091;-65
2024/04/16 06:04:57;;;;;;;9.63;1.65;;;;;;;;;;5505197;25;19994;-65
2024/04/16 06:07:24;;;;;;;9.48;1.52;;;;;;;;;;5509251;25;19993;-65
2024/04/16 06:09:50;;;;;;;6.05;1.00;;;;;;;;;;5506844;25;20397;-65
2024/04/16 06:12:16;;;;;;;8.13;1.85;;;;;;;;;;5501617;25;20042;-65
2024/04/16 06:14:42;;;;;;;7.55;1.13;;;;;;;;;;5502451;25;20131;-64
2024/04/16 06:17:09;;;;;;;7.07;0.90;;;;;;;;;;5507205;25;19993;-65
2024/04/16 06:19:35;;;;;;;4.30;0.70;;;;;;;;;;5507671;25;20011;-64
2024/04/16 06:22:02;;;;;;;6.68;0.80;;;;;;;;;;5474152;25;21852;-64
2024/04/16 06:24:29;;;;;;;2.92;0.85;;;;;;;;;;5501279;25;20013;-64
2024/04/16 06:26:55;;;;;;;6.22;0.90;;;;;;;;;;5505868;25;20017;-64
2024/04/16 06:29:22;;;;;;;5.15;0.70;;;;;;;;;;5512818;25;20020;-64
2024/04/16 06:31:48;;;;;;;5.05;1.20;;;;;;;;;;5501919;25;20286;-63
2024/04/16 06:34:14;;;;;;;4.82;0.80;;;;;;;;;;5507415;25;20453;-63
2024/04/16 06:36:41;;;;;;;3.88;0.80;;;;;;;;;;5499283;25;19994;-63
2024/04/16 06:39:07;;;;;;;5.50;2.13;;;;;;;;;;5475042;26;20082;-64
2024/04/16 06:41:33;;;;;;;6.38;1.13;;;;;;;;;;5514972;25;20006;-65
2024/04/16 06:44:00;;;;;;;8.38;1.45;;;;;;;;;;5511998;25;20001;-64
2024/04/16 06:46:26;;;;;;;6.38;1.02;;;;;;;;;;5504777;25;20016;-65
2024/04/16 06:48:52;;;;;;;3.30;0.90;;;;;;;;;;5504245;25;19994;-65
2024/04/16 06:51:19;;;;;;;6.57;1.23;;;;;;;;;;5509365;25;20409;-65
2024/04/16 06:53:45;;;;;;;6.10;1.10;;;;;;;;;;5487800;25;20000;-64
2024/04/16 06:56:11;;;;;;;5.10;1.08;;;;;;;;;;5516828;25;19997;-65
2024/04/16 06:58:38;;;;;;;3.75;0.93;;;;;;;;;;5495509;25;20025;-63
2024/04/16 07:01:04;;;;;;;4.60;0.85;;;;;;;;;;5509717;25;19993;-64
2024/04/16 07:03:30;;;;;;;5.85;0.98;;;;;;;;;;5516131;25;20220;-64
2024/04/16 07:05:56;;;;;;;4.65;1.45;;;;;;;;;;5529117;25;22165;-64
2024/04/16 07:08:24;;;;;;;4.38;0.95;;;;;;;;;;5490854;25;20064;-64
2024/04/16 07:10:50;;;;;;;5.20;0.88;;;;;;;;;;5504985;26;22455;-64
2024/04/16 07:13:17;;;;;;;7.25;1.23;;;;;;;;;;5499696;26;20047;-64
2024/04/16 07:15:43;;;;;;;5.63;1.40;;;;;;;;;;5495668;25;19993;-64
2024/04/16 07:18:09;;;;;;;8.13;1.00;;;;;;;;;;5493976;26;20583;-64
2024/04/16 07:20:36;;;;;;;5.70;1.10;;;;;;;;;;5495986;26;20038;-64
2024/04/16 07:23:03;;;;;;;6.10;1.20;;;;;;;;;;5488815;26;20002;-64
2024/04/16 07:25:29;;;;;;;4.80;1.10;;;;;;;;;;5515276;26;20441;-64
2024/04/16 07:27:56;;;;;;;6.68;1.98;;;;;;;;;;5504575;26;20026;-64
2024/04/16 07:30:22;;;;;;;5.82;1.00;;;;;;;;;;5507075;25;20009;-64
2024/04/16 07:32:48;;;;;;;3.67;0.80;;;;;;;;;;5508035;25;20009;-64
2024/04/16 07:35:15;;;;;;;4.65;0.90;;;;;;;;;;5500542;25;20032;-64
2024/04/16 07:37:41;;;;;;;3.20;0.90;;;;;;;;;;5498945;25;20013;-64
2024/04/16 07:40:08;;;;;;;6.53;0.85;;;;;;;;;;5498089;25;20013;-64
2024/04/16 07:42:34;;;;;;;3.30;0.60;;;;;;;;;;5496947;25;19997;-64
2024/04/16 07:45:00;;;;;;;5.28;0.63;;;;;;;;;;5493516;25;19994;-64
2024/04/16 07:47:26;;;;;;;4.25;0.88;;;;;;;;;;5488795;25;20154;-65
2024/04/16 07:49:53;;;;;;;2.28;0.60;;;;;;;;;;5501300;25;20006;-68
2024/04/16 07:52:19;;;;;;;2.25;0.60;;;;;;;;;;5461705;25;20078;-65
2024/04/16 07:54:45;;;;;;;3.20;0.75;;;;;;;;;;5497068;25;20070;-64
2024/04/16 07:57:12;;;;;;;4.43;0.60;;;;;;;;;;5509906;25;20045;-64
2024/04/16 07:59:38;;;;;;;5.25;0.77;;;;;;;;;;5509086;26;20453;-65
2024/04/16 08:02:04;;;;;;;2.78;0.60;;;;;;;;;;5512881;26;19994;-65
2024/04/16 08:04:31;;;;;;;5.57;0.95;;;;;;;;;;5508029;25;19998;-65
2024/04/16 08:06:57;;;;;;;6.03;1.35;;;;;;;;;;5510260;25;20020;-67
2024/04/16 08:09:23;;;;;;;3.03;0.85;;;;;;;;;;5510297;26;20296;-64
2024/04/16 08:11:49;;;;;;;0.88;0.43;;;;;;;;;;5479519;26;20071;-64
2024/04/16 08:14:18;;;;;;;2.85;0.90;;;;;;;;;;5507251;26;20033;-64
2024/04/16 08:16:45;;;;;;;2.80;0.68;;;;;;;;;;5504398;26;20004;-64
2024/04/16 08:19:11;;;;;;;4.38;0.50;;;;;;;;;;5505386;25;20531;-66
2024/04/16 08:21:37;;;;;;;3.47;0.50;;;;;;;;;;5503183;25;19994;-64
2024/04/16 08:24:05;;;;;;;2.30;0.60;;;;;;;;;;5506310;25;20370;-64
2024/04/16 08:26:31;;;;;;;8.85;0.60;;;;;;;;;;5500918;25;20089;-63
2024/04/16 08:28:58;;;;;;;5.38;1.48;;;;;;;;;;5523092;25;20060;-64
2024/04/16 08:31:26;;;;;;;1.20;0.40;;;;;;;;;;5512428;25;20362;-64
2024/04/16 08:33:52;;;;;;;3.47;0.55;;;;;;;;;;5515177;25;20023;-64
2024/04/16 08:36:18;;;;;;;3.97;0.73;;;;;;;;;;5515257;25;20477;-64
2024/04/16 08:38:45;;;;;;;1.17;0.47;;;;;;;;;;5516350;25;19994;-64
2024/04/16 08:41:11;;;;;;;2.90;0.65;;;;;;;;;;5523989;25;20007;-64
2024/04/16 08:43:40;;;;;;;1.13;0.45;;;;;;;;;;5517865;25;19994;-64
2024/04/16 08:46:08;;;;;;;2.05;0.60;;;;;;;;;;5495138;25;19998;-64
2024/04/16 08:48:37;;;;;;;4.80;0.60;;;;;;;;;;5493887;25;20005;-64
2024/04/16 08:51:04;;;;;;;2.13;0.45;;;;;;;;;;5505928;25;19995;-64
2024/04/16 08:53:33;;;;;;;2.35;0.60;;;;;;;;;;5505775;25;20062;-64
2024/04/16 08:55:59;;;;;;;4.57;0.70;;;;;;;;;;5503434;25;20333;-64
2024/04/16 08:58:26;;;;;;;3.00;0.50;;;;;;;;;;5501447;25;20019;-64
2024/04/16 09:00:53;;;;;;;1.23;0.30;;;;;;;;;;5501064;25;20314;-64
2024/04/16 09:03:19;;;;;;;3.90;0.43;;;;;;;;;;5502732;25;20031;-64
2024/04/16 09:05:46;;;;;;;4.82;0.40;;;;;;;;;;5544406;25;19993;-64
2024/04/16 09:08:12;;;;;;;3.17;0.43;;;;;;;;;;5514984;26;19994;-64
2024/04/16 09:10:39;;;;;;;2.33;0.50;;;;;;;;;;5477484;26;20012;-64
2024/04/16 09:13:10;;;;;;;2.65;0.45;;;;;;;;;;5513590;26;20450;-64
2024/04/16 09:15:37;;;;;;;4.95;0.70;;;;;;;;;;5513992;25;19994;-64
2024/04/16 09:18:04;;;;;;;4.68;0.70;;;;;;;;;;5516532;26;20430;-64
2024/04/16 09:20:30;;;;;;;1.25;0.55;;;;;;;;;;5512477;26;20050;-64
2024/04/16 09:22:56;;;;;;;3.38;0.50;;;;;;;;;;5505898;26;20020;-64
2024/04/16 09:25:25;;;;;;;4.10;0.52;;;;;;;;;;5510147;26;20048;-64
2024/04/16 09:27:52;;;;;;;2.85;0.55;;;;;;;;;;5507711;26;20009;-64
2024/04/16 09:30:19;;;;;;;1.88;0.38;;;;;;;;;;5517359;26;20004;-64
2024/04/16 09:32:46;;;;;;;4.63;0.65;;;;;;;;;;5514683;25;20440;-64
2024/04/16 09:35:19;;;;;;;2.28;0.30;;;;;;;;;;5508873;26;20068;-64
2024/04/16 09:37:45;;;;;;;3.60;0.50;;;;;;;;;;5494319;25;19993;-64
2024/04/16 09:40:13;;;;;;;2.05;0.30;;;;;;;;;;5503663;25;21104;-64
2024/04/16 09:42:40;;;;;;;2.90;0.40;;;;;;;;;;5505612;25;19993;-64
2024/04/16 09:45:07;;;;;;;2.65;0.40;;;;;;;;;;5502918;25;20332;-65
2024/04/16 09:47:36;;;;;;;2.80;0.50;;;;;;;;;;5504833;25;20002;-64
2024/04/16 09:50:02;;;;;;;1.27;0.32;;;;;;;;;;5502251;25;20094;-65
2024/04/16 09:52:30;;;;;;;3.95;1.38;;;;;;;;;;5507244;25;20017;-64
2024/04/16 09:54:59;;;;;;;2.50;0.90;;;;;;;;;;5498676;25;20005;-65
2024/04/16 09:57:27;;;;;;;0.57;0.22;;;;;;;;;;5510113;25;20010;-64
2024/04/16 09:59:55;;;;;;;2.13;0.73;;;;;;;;;;5494529;25;20026;-64
2024/04/16 10:02:22;;;;;;;2.38;0.40;;;;;;;;;;5504728;25;20033;-65
2024/04/16 10:04:49;;;;;;;1.23;0.43;;;;;;;;;;5509394;25;20001;-64
2024/04/16 10:07:17;;;;;;;2.40;0.40;;;;;;;;;;5514063;25;20005;-65
2024/04/16 10:09:43;;;;;;;0.82;0.30;;;;;;;;;;5478531;26;20302;-64
2024/04/16 10:12:11;;;;;;;1.95;0.40;;;;;;;;;;5505835;26;19993;-64
2024/04/16 10:14:37;;;;;;;1.75;0.30;;;;;;;;;;5508805;26;20352;-63
2024/04/16 10:17:04;;;;;;;1.38;0.38;;;;;;;;;;5512020;26;20026;-63
2024/04/16 10:19:30;;;;;;;1.80;0.40;;;;;;;;;;5510517;26;20505;-63
2024/04/16 10:22:01;;;;;;;1.65;0.50;;;;;;;;;;5512051;26;20081;-63
2024/04/16 10:24:29;;;;;;;2.95;0.35;;;;;;;;;;5510422;25;20006;-63
2024/04/16 10:26:58;;;;;;;2.05;0.45;;;;;;;;;;5506531;26;19998;-63
2024/04/16 10:29:25;;;;;;;2.10;0.40;;;;;;;;;;5509014;26;21236;-64
2024/04/16 10:31:52;;;;;;;4.82;0.70;;;;;;;;;;5505620;26;20067;-64
2024/04/16 10:34:22;;;;;;;3.78;0.47;;;;;;;;;;5515333;26;20069;-64
2024/04/16 10:36:49;;;;;;;2.20;0.43;;;;;;;;;;5468329;25;20002;-71
2024/04/16 10:39:16;;;;;;;5.72;1.15;;;;;;;;;;5507678;25;19998;-71
2024/04/16 10:41:52;;;;;;;5.45;0.70;;;;;;;;;;5504377;25;20005;-65
2024/04/16 10:44:19;;;;;;;3.50;0.60;;;;;;;;;;5493001;25;20001;-64
2024/04/16 10:46:45;;;;;;;3.72;0.50;;;;;;;;;;5502611;25;20135;-64
2024/04/16 10:49:12;;;;;;;2.05;0.50;;;;;;;;;;5492360;25;19994;-63
2024/04/16 10:51:38;;;;;;;2.72;0.85;;;;;;;;;;5456758;25;20001;-64
2024/04/16 10:54:06;;;;;;;3.08;0.50;;;;;;;;;;5501884;25;20017;-63
2024/04/16 10:56:32;;;;;;;3.28;0.60;;;;;;;;;;5501217;25;20350;-63
2024/04/16 10:58:59;;;;;;;3.42;0.68;;;;;;;;;;5502578;25;19994;-64
2024/04/16 11:01:25;;;;;;;1.70;0.52;;;;;;;;;;5508616;25;20452;-63
2024/04/16 11:03:51;;;;;;;2.40;0.50;;;;;;;;;;5503922;25;20088;-63
2024/04/16 11:06:19;;;;;;;4.30;1.00;;;;;;;;;;5459349;25;20033;-64
2024/04/16 11:08:45;;;;;;;4.50;0.80;;;;;;;;;;5489394;25;19993;-65
2024/04/16 11:11:13;;;;;;;3.92;0.63;;;;;;;;;;5530366;25;20435;-65
2024/04/16 11:13:40;;;;;;;5.28;0.60;;;;;;;;;;5512323;25;20003;-63
2024/04/16 11:16:06;;;;;;;2.83;0.40;;;;;;;;;;5516652;25;19994;-63
2024/04/16 11:18:32;;;;;;;2.65;0.60;;;;;;;;;;5511018;26;20025;-63
2024/04/16 11:20:59;;;;;;;4.65;0.70;;;;;;;;;;5508892;25;19998;-66
2024/04/16 11:23:25;;;;;;;5.10;0.52;;;;;;;;;;5514630;26;20329;-66
2024/04/16 11:25:52;;;;;;;2.97;0.88;;;;;;;;;;5504632;26;20101;-65
2024/04/16 11:28:19;;;;;;;1.63;0.60;;;;;;;;;;5504136;25;20445;-65
2024/04/16 11:30:55;;;;;;;2.22;0.57;;;;;;;;;;5504037;25;20320;-67
2024/04/16 11:33:21;;;;;;;3.95;0.98;;;;;;;;;;5504755;25;20157;-65
2024/04/16 11:35:48;;;;;;;5.50;0.90;;;;;;;;;;5509583;26;19993;-65
2024/04/16 11:38:18;;;;;;;3.30;0.80;;;;;;;;;;5514657;25;20028;-65
2024/04/16 11:40:45;;;;;;;2.67;0.70;;;;;;;;;;5508824;26;20008;-65
2024/04/16 11:43:13;;;;;;;1.88;0.55;;;;;;;;;;5477837;26;20010;-65
2024/04/16 11:45:40;;;;;;;2.72;0.60;;;;;;;;;;5509368;26;19998;-65
2024/04/16 11:48:07;;;;;;;6.10;1.00;;;;;;;;;;5513743;26;20029;-65
2024/04/16 11:50:34;;;;;;;4.00;0.60;;;;;;;;;;5503166;26;20001;-65
2024/04/16 11:53:00;;;;;;;2.63;0.50;;;;;;;;;;5509508;26;20034;-65
2024/04/16 11:55:26;;;;;;;5.47;1.02;;;;;;;;;;5515231;26;20325;-66
2024/04/16 11:57:53;;;;;;;4.43;0.63;;;;;;;;;;5492224;26;20008;-65
2024/04/16 12:00:19;;;;;;;5.82;1.48;;;;;;;;;;5513788;26;20429;-65
2024/04/16 12:02:45;;;;;;;6.88;1.17;;;;;;;;;;5508490;26;19998;-65
2024/04/16 12:05:12;;;;;;;2.88;0.60;;;;;;;;;;5517507;26;20024;-66
2024/04/16 12:07:38;;;;;;;1.85;0.70;;;;;;;;;;5518504;25;20016;-66
2024/04/16 12:10:04;;;;;;;2.30;0.98;;;;;;;;;;5523364;26;20336;-65
2024/04/16 12:12:31;;;;;;;4.10;0.95;;;;;;;;;;5521994;25;20009;-65
2024/04/16 12:14:57;;;;;;;4.00;1.13;;;;;;;;;;5514700;25;19994;-64
2024/04/16 12:17:23;;;;;;;3.33;1.08;;;;;;;;;;5516829;26;20001;-70
2024/04/16 12:19:50;;;;;;;3.67;1.10;;;;;;;;;;5514518;25;19994;-65
2024/04/16 12:22:16;;;;;;;6.55;1.75;;;;;;;;;;5510999;25;20001;-65
2024/04/16 12:24:42;;;;;;;5.60;1.48;;;;;;;;;;5514290;26;20447;-65
2024/04/16 12:27:09;;;;;;;7.22;1.98;;;;;;;;;;5513739;26;19994;-65
2024/04/16 12:29:36;;;;;;;5.32;2.42;;;;;;;;;;5510020;25;20058;-65
2024/04/16 12:32:03;;;;;;;5.35;2.50;;;;;;;;;;5508292;26;19993;-65
2024/04/16 12:34:29;;;;;;;11.57;3.17;;;;;;;;;;5500509;26;20074;-65
2024/04/16 12:36:55;;;;;;;6.32;2.33;;;;;;;;;;5503276;26;20003;-65
2024/04/16 12:39:22;;;;;;;8.65;2.35;;;;;;;;;;5529052;25;20005;-65
2024/04/16 12:41:49;;;;;;;7.85;2.95;;;;;;;;;;5536615;25;20337;-65
2024/04/16 12:44:15;;;;;;;10.52;2.72;;;;;;;;;;5517272;26;20006;-65
2024/04/16 12:46:41;;;;;;;9.10;2.45;;;;;;;;;;5489264;26;20001;-65
2024/04/16 12:49:08;;;;;;;7.85;2.88;;;;;;;;;;5513492;26;20317;-65
2024/04/16 12:51:34;;;;;;;11.75;3.13;;;;;;;;;;5520825;25;20421;-65
2024/04/16 12:54:00;;;;;;;10.25;2.90;;;;;;;;;;5509506;26;20029;-65
2024/04/16 12:56:27;;;;;;;10.40;3.30;;;;;;;;;;5519087;25;20001;-65
2024/04/16 12:58:54;;;;;;;12.30;3.30;;;;;;;;;;5529339;25;20093;-64
2024/04/16 13:01:20;;;;;;;11.70;3.15;;;;;;;;;;5516964;26;20016;-65
2024/04/16 13:03:46;;;;;;;19.67;4.70;;;;;;;;;;5506875;25;20008;-65
2024/04/16 13:06:14;;;;;;;13.50;3.22;;;;;;;;;;5506571;25;20056;-65
2024/04/16 13:08:40;;;;;;;17.10;3.33;;;;;;;;;;5513186;25;20001;-65
2024/04/16 13:11:08;;;;;;;12.52;3.15;;;;;;;;;;5508358;25;20441;-65
2024/04/16 13:13:35;;;;;;;11.23;3.03;;;;;;;;;;5516839;25;20385;-66
2024/04/16 13:16:02;;;;;;;12.55;3.05;;;;;;;;;;5508316;25;20013;-65
2024/04/16 13:18:28;;;;;;;15.32;2.95;;;;;;;;;;5510166;25;19993;-66
2024/04/16 13:20:55;;;;;;;10.98;2.92;;;;;;;;;;5514107;26;20002;-68
2024/04/16 13:23:21;;;;;;;12.45;2.63;;;;;;;;;;5511687;25;20017;-67
2024/04/16 13:25:48;;;;;;;15.52;2.95;;;;;;;;;;5510054;26;20089;-67
2024/04/16 13:28:14;;;;;;;9.55;2.30;;;;;;;;;;5511991;26;20001;-67
2024/04/16 13:30:41;;;;;;;11.18;2.60;;;;;;;;;;5504092;26;19998;-65
2024/04/16 13:33:07;;;;;;;9.73;2.42;;;;;;;;;;5512791;26;20457;-66
2024/04/16 13:35:35;;;;;;;11.55;3.25;;;;;;;;;;5507177;26;20455;-66
2024/04/16 13:38:02;;;;;;;9.18;2.40;;;;;;;;;;5501231;26;20017;-66
2024/04/16 13:40:28;;;;;;;9.00;2.50;;;;;;;;;;5462142;26;20436;-66
2024/04/16 13:42:54;;;;;;;11.60;2.67;;;;;;;;;;5486955;26;19995;-66
2024/04/16 13:45:21;;;;;;;10.38;2.55;;;;;;;;;;5492731;26;20070;-66
2024/04/16 13:47:47;;;;;;;10.05;2.78;;;;;;;;;;5496006;26;20009;-66
2024/04/16 13:50:13;;;;;;;14.25;2.90;;;;;;;;;;5494271;26;20285;-66
2024/04/16 13:52:40;;;;;;;9.90;2.95;;;;;;;;;;5499478;26;19994;-66
2024/04/16 13:55:06;;;;;;;11.65;3.15;;;;;;;;;;5488717;26;20713;-66
2024/04/16 13:57:32;;;;;;;15.20;3.25;;;;;;;;;;5508295;26;20064;-66
2024/04/16 13:59:59;;;;;;;18.88;2.72;;;;;;;;;;5512231;26;20447;-66
2024/04/16 14:02:26;;;;;;;11.20;1.92;;;;;;;;;;5512014;26;20424;-68
2024/04/16 14:04:53;;;;;;;12.75;2.22;;;;;;;;;;5510963;26;20035;-68
2024/04/16 14:07:19;;;;;;;12.50;1.98;;;;;;;;;;5503511;26;20317;-68
2024/04/16 14:09:45;;;;;;;10.35;2.28;;;;;;;;;;5506952;26;19994;-67
2024/04/16 14:12:13;;;;;;;9.93;2.20;;;;;;;;;;5497330;25;20078;-66
2024/04/16 14:14:40;;;;;;;10.80;1.92;;;;;;;;;;5510483;26;20009;-66
2024/04/16 14:17:06;;;;;;;13.25;2.65;;;;;;;;;;5476455;26;19998;-66
2024/04/16 14:19:33;;;;;;;9.30;2.05;;;;;;;;;;5510777;25;20001;-66
2024/04/16 14:21:59;;;;;;;11.77;2.30;;;;;;;;;;5513598;26;20009;-66
2024/04/16 14:24:30;;;;;;;7.72;1.90;;;;;;;;;;5482743;26;20360;-66
2024/04/16 14:26:56;;;;;;;9.82;2.13;;;;;;;;;;5515251;26;20456;-66
2024/04/16 14:29:23;;;;;;;15.85;2.42;;;;;;;;;;5513785;26;20028;-66
2024/04/16 14:31:50;;;;;;;11.77;2.53;;;;;;;;;;5516870;26;19998;-66
2024/04/16 14:34:17;;;;;;;15.02;2.60;;;;;;;;;;5513421;25;20433;-66
2024/04/16 14:36:43;;;;;;;11.95;2.22;;;;;;;;;;5509745;26;19998;-66
2024/04/16 14:39:10;;;;;;;15.13;2.10;;;;;;;;;;5510519;26;22311;-66
2024/04/16 14:41:37;;;;;;;13.00;2.17;;;;;;;;;;5504269;26;20474;-66